Time;durP1;ratioP1;P1;durP2;ratioP2;P2;SDS_P1;SDS_P2;PMS_P1;PMS_P2;Temp;Humidity;BMP_temperature;BMP_pressure;BME280_temperature;BME280_humidity;BME280_pressure;Samples;Min_cycle;Max_cycle;Signal;HPM_P1;HPM_P2
2022/08/24 00:00:53;;;;;;;3.92;2.67;;;;;;;17.12;74.60;96054.16;4973665;28;24445;-73
2022/08/24 00:03:19;;;;;;;3.03;2.50;;;;;;;17.17;74.27;96054.63;4971897;28;24609;-73
2022/08/24 00:05:46;;;;;;;3.22;2.40;;;;;;;17.21;74.29;96054.38;4970904;28;24437;-73
2022/08/24 00:08:12;;;;;;;2.70;2.45;;;;;;;17.22;74.52;96054.22;4972741;28;24445;-73
2022/08/24 00:10:39;;;;;;;3.27;2.50;;;;;;;17.15;74.75;96053.91;4961582;28;24441;-73
2022/08/24 00:13:05;;;;;;;4.05;2.90;;;;;;;17.17;74.56;96053.81;4972952;28;24525;-73
2022/08/24 00:15:32;;;;;;;7.10;2.80;;;;;;;17.14;75.21;96052.25;4969917;28;24504;-74
2022/08/24 00:18:00;;;;;;;3.42;2.45;;;;;;;16.98;76.37;96056.28;4966393;28;24450;-73
2022/08/24 00:20:28;;;;;;;4.25;2.60;;;;;;;16.91;76.29;96054.19;4971271;28;24440;-74
2022/08/24 00:22:54;;;;;;;4.85;2.67;;;;;;;16.97;76.02;96052.03;4972816;28;24500;-73
2022/08/24 00:25:21;;;;;;;3.42;2.85;;;;;;;16.86;76.33;96050.28;4975317;28;24986;-73
2022/08/24 00:27:48;;;;;;;3.38;2.75;;;;;;;16.72;77.24;96045.34;4967979;28;24444;-73
2022/08/24 00:30:17;;;;;;;3.30;2.65;;;;;;;16.68;77.06;96045.59;4967194;28;25012;-73
2022/08/24 00:32:45;;;;;;;4.03;3.10;;;;;;;16.25;77.77;96039.63;4971429;28;24442;-73
2022/08/24 00:35:17;;;;;;;3.87;3.03;;;;;;;15.99;79.79;96039.94;4970059;28;24457;-73
2022/08/24 00:37:44;;;;;;;5.43;2.70;;;;;;;16.20;79.24;96040.84;4963135;28;24465;-73
2022/08/24 00:40:15;;;;;;;2.97;2.28;;;;;;;16.40;78.44;96039.22;4968826;28;24496;-73
2022/08/24 00:42:41;;;;;;;3.65;2.80;;;;;;;16.56;76.90;96037.94;4972364;28;24426;-74
2022/08/24 00:45:12;;;;;;;3.60;2.53;;;;;;;16.64;76.32;96036.34;4969838;28;25060;-73
2022/08/24 00:47:44;;;;;;;5.75;2.83;;;;;;;16.75;76.05;96040.72;4962736;28;24450;-73
2022/08/24 00:50:18;;;;;;;3.00;2.30;;;;;;;16.44;77.84;96029.34;4970303;28;24500;-73
2022/08/24 00:52:49;;;;;;;3.42;2.55;;;;;;;16.28;78.38;96037.59;4968005;28;24796;-73
2022/08/24 00:55:19;;;;;;;5.28;2.90;;;;;;;16.32;77.99;96031.16;4964749;28;24877;-73
2022/08/24 00:57:49;;;;;;;3.58;2.97;;;;;;;16.41;78.03;96032.19;4965843;28;24540;-73
2022/08/24 01:00:19;;;;;;;3.92;2.75;;;;;;;16.15;78.86;96032.53;4972155;28;24466;-73
2022/08/24 01:02:53;;;;;;;3.30;3.00;;;;;;;16.06;79.65;96030.66;4971271;28;24434;-73
2022/08/24 01:05:21;;;;;;;8.15;3.10;;;;;;;15.90;80.10;96025.00;4964606;28;24445;-73
2022/08/24 01:07:49;;;;;;;7.13;3.37;;;;;;;15.85;80.65;96029.78;4972711;28;24475;-73
2022/08/24 01:10:21;;;;;;;3.33;2.88;;;;;;;15.73;81.39;96032.41;4972629;28;24994;-73
2022/08/24 01:12:51;;;;;;;3.22;2.70;;;;;;;15.64;82.90;96029.66;4973183;28;24812;-73
2022/08/24 01:15:19;;;;;;;3.33;3.03;;;;;;;15.64;83.51;96027.88;4957919;28;24496;-73
2022/08/24 01:20:31;;;;;;;3.05;2.70;;;;;;;15.77;82.65;96029.56;4969802;28;24915;-73
2022/08/24 01:23:06;;;;;;;4.63;2.95;;;;;;;15.84;82.74;96031.56;4975370;28;24492;-73
2022/08/24 01:25:37;;;;;;;3.63;3.10;;;;;;;15.94;81.79;96034.25;4976863;28;24451;-75
2022/08/24 01:28:10;;;;;;;3.67;2.92;;;;;;;15.93;81.55;96032.59;4968339;28;24444;-74
2022/08/24 01:30:36;;;;;;;7.30;3.10;;;;;;;16.08;81.11;96039.19;4972986;28;24440;-75
2022/08/24 01:33:05;;;;;;;3.38;2.75;;;;;;;15.99;81.71;96034.72;4975629;28;25405;-74
2022/08/24 01:35:33;;;;;;;4.53;2.92;;;;;;;15.81;82.09;96036.19;4971020;28;24465;-74
2022/08/24 01:38:01;;;;;;;5.13;2.73;;;;;;;15.75;82.58;96037.50;4971230;28;24461;-75
2022/08/24 01:40:34;;;;;;;3.40;2.77;;;;;;;15.72;83.37;96028.16;4963881;28;24441;-74
2022/08/24 01:43:05;;;;;;;4.35;2.70;;;;;;;15.76;83.28;96023.50;4967149;28;24472;-74
2022/08/24 01:45:32;;;;;;;5.10;2.97;;;;;;;15.81;82.90;96028.34;4971442;28;24437;-75
2022/08/24 01:47:58;;;;;;;6.75;2.72;;;;;;;15.89;81.94;96028.56;4975835;28;25079;-74
2022/08/24 01:50:25;;;;;;;3.50;3.00;;;;;;;15.90;82.21;96033.66;4970420;28;24572;-75
2022/08/24 01:52:52;;;;;;;3.77;2.80;;;;;;;15.92;81.65;96029.16;4975744;28;24492;-75
2022/08/24 01:55:19;;;;;;;3.97;2.80;;;;;;;15.86;82.41;96023.59;4971313;28;24844;-74
2022/08/24 01:57:46;;;;;;;4.88;2.90;;;;;;;15.84;82.30;96039.41;4969972;28;24466;-75
2022/08/24 02:00:14;;;;;;;3.85;2.90;;;;;;;15.89;82.42;96039.03;4969804;28;24437;-74
2022/08/24 02:02:42;;;;;;;5.32;2.90;;;;;;;15.87;81.63;96033.06;4967188;28;25029;-75
2022/08/24 02:05:10;;;;;;;3.83;2.90;;;;;;;15.91;81.76;96029.28;4971212;28;24440;-75
2022/08/24 02:07:36;;;;;;;3.47;2.67;;;;;;;15.75;82.65;96027.06;4971287;28;24449;-75
2022/08/24 02:10:04;;;;;;;3.55;2.80;;;;;;;15.79;82.29;96036.28;4972875;28;24549;-74
2022/08/24 02:12:31;;;;;;;5.32;2.90;;;;;;;15.77;82.61;96034.78;4975128;28;24441;-75
2022/08/24 02:14:57;;;;;;;4.15;3.00;;;;;;;15.65;83.40;96037.41;4971720;28;24437;-75
2022/08/24 02:17:25;;;;;;;2.85;2.55;;;;;;;15.67;82.81;96029.44;4976644;28;24461;-74
2022/08/24 02:19:52;;;;;;;2.95;2.60;;;;;;;15.64;82.62;96030.47;4971615;28;24437;-74
2022/08/24 02:22:18;;;;;;;3.90;2.90;;;;;;;15.63;82.32;96035.81;4970754;28;24492;-75
2022/08/24 02:24:45;;;;;;;7.05;2.90;;;;;;;15.64;81.87;96037.47;4968606;28;24440;-75
2022/08/24 02:27:12;;;;;;;4.25;2.67;;;;;;;15.55;82.06;96041.66;4966089;28;24492;-73
2022/08/24 02:29:38;;;;;;;3.15;2.55;;;;;;;15.42;83.47;96040.94;4960348;28;24449;-74
2022/08/24 02:32:05;;;;;;;3.70;2.70;;;;;;;15.64;81.47;96048.75;4973343;28;24430;-75
2022/08/24 02:34:33;;;;;;;2.97;2.70;;;;;;;15.31;84.25;96038.34;4970358;28;24521;-75
2022/08/24 02:37:00;;;;;;;6.07;2.75;;;;;;;15.20;84.78;96044.38;4973398;28;24520;-75
2022/08/24 02:39:26;;;;;;;4.97;3.00;;;;;;;15.21;85.17;96039.06;4968497;28;24444;-74
2022/08/24 02:41:53;;;;;;;3.90;3.08;;;;;;;15.22;85.52;96035.50;4970769;28;24445;-75
2022/08/24 02:44:19;;;;;;;3.58;3.17;;;;;;;15.29;84.98;96037.63;4973123;28;24488;-74
2022/08/24 02:46:46;;;;;;;5.90;3.20;;;;;;;15.22;85.98;96035.50;4971481;28;24449;-75
2022/08/24 02:49:12;;;;;;;4.10;2.80;;;;;;;15.27;85.61;96031.69;4970561;28;24496;-75
2022/08/24 02:51:43;;;;;;;4.50;3.33;;;;;;;15.26;85.19;96036.09;4970748;28;24528;-75
2022/08/24 02:54:10;;;;;;;4.30;2.83;;;;;;;15.27;85.65;96032.53;4970117;28;24523;-75
2022/08/24 02:56:37;;;;;;;4.15;3.00;;;;;;;15.26;85.22;96038.69;4966727;28;24544;-74
2022/08/24 02:59:03;;;;;;;3.97;2.78;;;;;;;15.23;85.53;96031.91;4970896;28;24488;-75
2022/08/24 03:01:30;;;;;;;3.90;2.92;;;;;;;15.19;85.46;96032.28;4965588;28;24513;-75
2022/08/24 03:03:57;;;;;;;3.38;3.08;;;;;;;15.11;86.36;96027.66;4964583;28;24439;-74
2022/08/24 03:06:23;;;;;;;5.55;3.00;;;;;;;15.09;85.47;96028.72;4974270;28;24438;-74
2022/08/24 03:08:52;;;;;;;4.18;3.22;;;;;;;15.18;85.00;96038.47;4970555;28;24446;-75
2022/08/24 03:11:18;;;;;;;4.18;3.28;;;;;;;15.04;85.43;96036.06;4970429;28;24444;-75
2022/08/24 03:13:45;;;;;;;4.43;3.22;;;;;;;14.99;85.84;96034.66;4973678;28;24476;-74
2022/08/24 03:16:11;;;;;;;4.93;3.60;;;;;;;14.79;88.66;96032.69;4978284;28;24622;-75
2022/08/24 03:18:38;;;;;;;4.30;3.40;;;;;;;14.87;87.41;96027.75;4977777;28;24464;-75
2022/08/24 03:21:04;;;;;;;3.40;3.10;;;;;;;14.90;87.71;96024.91;4965643;28;24573;-75
2022/08/24 03:23:31;;;;;;;4.85;3.10;;;;;;;14.85;87.22;96021.81;4973399;28;24840;-74
2022/08/24 03:26:00;;;;;;;3.35;3.05;;;;;;;14.69;88.43;96029.16;4973875;28;24504;-74
2022/08/24 03:28:27;;;;;;;3.88;3.30;;;;;;;14.70;88.58;96034.22;4974827;28;24481;-75
2022/08/24 03:30:54;;;;;;;3.90;2.80;;;;;;;14.69;88.74;96035.19;4975598;28;24496;-75
2022/08/24 03:33:20;;;;;;;3.35;3.05;;;;;;;14.68;88.35;96030.06;4973898;28;24449;-75
2022/08/24 03:35:47;;;;;;;7.72;2.92;;;;;;;14.74;87.95;96035.66;4971169;28;25015;-76
2022/08/24 03:38:14;;;;;;;3.97;3.17;;;;;;;14.75;88.31;96039.94;4968327;28;24472;-76
2022/08/24 03:40:41;;;;;;;3.33;2.70;;;;;;;14.68;88.30;96028.31;4971325;28;24449;-75
2022/08/24 03:43:44;;;;;;;3.30;2.63;;;;;;;14.68;88.64;96028.31;4971461;28;24764;-75
2022/08/24 03:45:56;;;;;;;3.50;3.13;;;;;;;14.82;87.60;96024.66;4972569;28;24823;-75
2022/08/24 03:48:23;;;;;;;4.55;3.20;;;;;;;14.77;87.50;96021.56;4972555;28;24433;-75
2022/08/24 03:50:49;;;;;;;4.75;3.22;;;;;;;14.62;88.30;96023.56;4972317;28;24441;-75
2022/08/24 03:53:16;;;;;;;4.83;3.30;;;;;;;14.56;88.31;96024.00;4970526;28;24448;-75
2022/08/24 03:55:42;;;;;;;3.85;3.40;;;;;;;14.45;89.85;96021.34;4969965;28;24434;-75
2022/08/24 03:58:10;;;;;;;7.47;3.45;;;;;;;14.39;90.95;96027.03;4971098;28;24465;-75
2022/08/24 04:00:36;;;;;;;5.82;3.50;;;;;;;14.42;90.33;96030.19;4970458;28;24441;-76
2022/08/24 04:03:03;;;;;;;3.85;3.20;;;;;;;14.48;90.50;96028.94;4977772;28;24514;-75
2022/08/24 04:05:31;;;;;;;3.67;3.10;;;;;;;14.58;89.42;96036.94;4973887;28;24442;-76
2022/08/24 04:07:58;;;;;;;5.55;3.35;;;;;;;14.55;89.91;96030.16;4973942;28;24536;-76
2022/08/24 04:10:24;;;;;;;3.70;3.30;;;;;;;14.49;90.16;96035.81;4972260;28;24815;-74
2022/08/24 04:12:51;;;;;;;3.40;3.07;;;;;;;14.44;90.16;96036.16;4973091;28;24785;-74
2022/08/24 04:15:19;;;;;;;4.63;3.53;;;;;;;14.41;90.36;96033.75;4961621;28;25038;-74
2022/08/24 04:17:45;;;;;;;5.88;3.13;;;;;;;14.27;91.71;96039.16;4974782;28;24465;-74
2022/08/24 04:20:12;;;;;;;6.65;3.33;;;;;;;14.22;91.83;96036.88;4968648;28;24441;-74
2022/08/24 04:22:38;;;;;;;4.38;3.50;;;;;;;14.23;91.72;96033.34;4972167;28;24444;-74
2022/08/24 04:25:06;;;;;;;6.10;3.17;;;;;;;14.27;91.00;96037.38;4972487;28;25026;-74
2022/08/24 04:27:33;;;;;;;4.30;3.40;;;;;;;14.29;90.88;96035.50;4972302;28;24469;-74
2022/08/24 04:29:59;;;;;;;8.23;3.63;;;;;;;14.25;90.77;96031.47;4972258;28;24440;-75
2022/08/24 04:32:27;;;;;;;4.65;3.42;;;;;;;14.13;92.02;96045.38;4972011;28;24472;-74
2022/08/24 04:34:53;;;;;;;5.22;3.88;;;;;;;14.10;92.12;96040.41;4969662;28;24445;-74
2022/08/24 04:37:20;;;;;;;4.47;3.83;;;;;;;14.09;92.58;96045.69;4972118;28;24524;-75
2022/08/24 04:39:46;;;;;;;5.82;4.05;;;;;;;13.98;93.54;96044.72;4967459;28;24440;-74
2022/08/24 04:42:13;;;;;;;16.92;4.22;;;;;;;13.96;94.61;96053.56;4969755;28;24921;-74
2022/08/24 04:44:39;;;;;;;6.90;4.03;;;;;;;14.01;94.71;96051.47;4965778;28;24438;-73
2022/08/24 04:47:07;;;;;;;4.20;3.40;;;;;;;14.08;94.42;96050.06;4972268;28;24504;-73
2022/08/24 04:49:36;;;;;;;7.90;3.78;;;;;;;14.19;93.04;96054.50;4971970;28;25050;-73
2022/08/24 04:52:03;;;;;;;6.38;3.25;;;;;;;14.16;93.09;96055.56;4971610;28;24443;-73
2022/08/24 04:54:31;;;;;;;6.93;3.58;;;;;;;14.21;93.40;96058.69;4971369;28;24442;-73
2022/08/24 04:56:57;;;;;;;5.55;3.25;;;;;;;14.24;93.20;96058.47;4967088;28;25066;-73
2022/08/24 04:59:24;;;;;;;5.68;3.63;;;;;;;14.24;94.21;96061.06;4965642;28;24445;-73
2022/08/24 05:01:51;;;;;;;5.72;3.63;;;;;;;14.31;93.89;96058.81;4967885;28;24451;-74
2022/08/24 05:04:17;;;;;;;4.57;3.50;;;;;;;14.40;93.32;96059.94;4972162;28;24444;-73
2022/08/24 05:06:45;;;;;;;8.88;3.35;;;;;;;14.46;93.49;96064.69;4969564;28;24999;-73
2022/08/24 05:09:12;;;;;;;4.63;3.40;;;;;;;14.56;93.45;96060.50;4963396;28;24465;-73
2022/08/24 05:11:40;;;;;;;4.90;3.10;;;;;;;14.65;93.36;96065.03;4966515;28;24844;-73
2022/08/24 05:14:07;;;;;;;4.90;3.57;;;;;;;14.72;93.91;96066.25;4964625;28;24485;-73
2022/08/24 05:16:36;;;;;;;4.22;3.55;;;;;;;14.88;95.88;96070.31;4967967;28;24445;-73
2022/08/24 05:19:03;;;;;;;5.28;3.28;;;;;;;14.94;94.65;96064.63;4970168;28;24505;-73
2022/08/24 05:21:30;;;;;;;6.75;3.63;;;;;;;15.00;94.94;96067.59;4970822;28;25034;-73
2022/08/24 05:23:58;;;;;;;7.45;3.67;;;;;;;15.07;94.90;96064.53;4970173;28;24533;-73
2022/08/24 05:26:27;;;;;;;4.30;3.33;;;;;;;15.15;94.63;96065.59;4969991;28;24430;-75
2022/08/24 05:28:54;;;;;;;4.18;3.38;;;;;;;15.17;95.52;96068.94;4968860;28;24987;-75
2022/08/24 05:31:22;;;;;;;4.93;3.80;;;;;;;15.25;94.24;96066.56;4971061;28;24445;-78
2022/08/24 05:33:50;;;;;;;12.25;4.40;;;;;;;15.43;94.43;96071.34;4964905;28;24437;-76
2022/08/24 05:36:19;;;;;;;6.45;4.20;;;;;;;15.55;93.70;96077.38;4970567;28;24445;-76
2022/08/24 05:38:46;;;;;;;6.47;4.30;;;;;;;15.66;93.36;96085.22;4954072;28;24512;-77
2022/08/24 05:41:14;;;;;;;5.90;3.78;;;;;;;15.77;91.57;96082.63;4955002;28;24505;-77
2022/08/24 05:43:40;;;;;;;5.13;4.15;;;;;;;15.89;91.85;96084.25;4954738;28;24976;-78
2022/08/24 05:46:07;;;;;;;4.72;4.22;;;;;;;16.06;90.68;96084.72;4955098;28;24426;-77
2022/08/24 05:48:36;;;;;;;8.57;4.13;;;;;;;16.10;88.00;96084.34;4954908;28;24426;-78
2022/08/24 05:51:03;;;;;;;7.38;3.90;;;;;;;16.22;85.56;96087.75;4956147;28;24481;-77
2022/08/24 05:53:30;;;;;;;5.47;3.33;;;;;;;16.34;84.65;96094.59;4954762;28;24422;-77
2022/08/24 05:55:56;;;;;;;7.47;3.95;;;;;;;16.30;82.77;96093.19;4954688;28;24429;-78
2022/08/24 05:58:24;;;;;;;4.70;3.47;;;;;;;16.41;82.37;96098.38;4958638;28;24458;-77
2022/08/24 06:00:51;;;;;;;5.20;3.53;;;;;;;16.47;80.80;96101.47;4969458;28;24417;-77
2022/08/24 06:03:17;;;;;;;4.47;3.33;;;;;;;16.47;80.65;96099.69;4960664;28;24489;-77
2022/08/24 06:05:47;;;;;;;5.90;3.65;;;;;;;16.40;80.18;96104.56;4954222;28;24507;-76
2022/08/24 06:08:14;;;;;;;5.35;3.65;;;;;;;16.28;80.34;96102.09;4953604;28;24526;-76
2022/08/24 06:10:41;;;;;;;4.70;3.70;;;;;;;16.13;81.31;96099.78;4954007;28;24422;-76
2022/08/24 06:13:09;;;;;;;5.95;3.85;;;;;;;15.99;82.04;96096.59;4953913;28;24426;-76
2022/08/24 06:15:38;;;;;;;6.80;3.67;;;;;;;16.13;81.29;96094.56;4953895;28;24430;-76
2022/08/24 06:18:05;;;;;;;6.37;4.03;;;;;;;16.11;81.74;96095.63;4953253;28;24462;-77
2022/08/24 06:20:32;;;;;;;4.60;3.90;;;;;;;16.04;82.39;96089.22;4953807;28;24414;-76
2022/08/24 06:22:59;;;;;;;6.22;3.72;;;;;;;16.14;81.37;96096.19;4953801;28;24429;-76
2022/08/24 06:28:09;;;;;;;4.07;3.45;;;;;;;16.19;80.42;96096.66;4953627;29;24963;-76
2022/08/24 06:30:37;;;;;;;7.88;4.18;;;;;;;16.02;81.64;96097.19;4953709;28;24437;-76
2022/08/24 06:33:04;;;;;;;8.85;3.42;;;;;;;16.39;80.11;96095.06;4953706;28;24426;-76
2022/08/24 06:35:31;;;;;;;4.68;3.40;;;;;;;16.55;79.12;96099.88;4953354;28;24422;-76
2022/08/24 06:37:57;;;;;;;4.80;3.60;;;;;;;16.65;78.33;96098.19;4953534;28;24805;-75
2022/08/24 06:40:24;;;;;;;6.32;3.63;;;;;;;16.61;78.18;96095.91;4953277;28;24978;-77
2022/08/24 06:42:51;;;;;;;4.82;3.63;;;;;;;16.56;78.90;96100.69;4953354;28;24973;-77
2022/08/24 06:45:18;;;;;;;3.55;3.25;;;;;;;16.67;78.08;96093.63;4953622;28;24418;-77
2022/08/24 06:47:46;;;;;;;4.80;3.03;;;;;;;16.97;77.18;96096.50;4953497;28;24434;-76
2022/08/24 06:50:12;;;;;;;4.67;3.20;;;;;;;17.15;75.94;96097.59;4957215;28;24430;-77
2022/08/24 06:52:39;;;;;;;7.57;3.70;;;;;;;17.30;75.12;96095.47;4957247;28;24943;-77
2022/08/24 06:55:06;;;;;;;5.90;3.33;;;;;;;17.47;73.80;96105.34;4957514;28;24473;-77
2022/08/24 06:57:33;;;;;;;6.00;3.53;;;;;;;17.49;73.32;96099.97;4957030;28;24979;-77
2022/08/24 07:00:00;;;;;;;7.75;3.40;;;;;;;17.37;73.62;96104.47;4957417;28;24415;-77
2022/08/24 07:02:26;;;;;;;7.53;3.42;;;;;;;17.59;73.39;96111.31;4957018;28;24418;-76
2022/08/24 07:04:54;;;;;;;5.13;3.50;;;;;;;17.78;72.04;96111.44;4957321;28;24423;-76
2022/08/24 07:10:42;;;;;;;8.27;3.28;;;;;;;17.96;72.90;96106.38;4956858;29;24469;-74
2022/08/24 07:13:10;;;;;;;4.07;3.08;;;;;;;18.29;70.99;96104.41;4957132;28;24797;-74
2022/08/24 07:18:58;;;;;;;8.85;3.40;;;;;;;19.15;66.13;96107.19;4956381;28;24530;-75
2022/08/24 07:24:48;;;;;;;7.38;3.13;;;;;;;19.93;63.61;96108.63;4956767;29;24389;-74
2022/08/24 07:27:14;;;;;;;5.15;3.00;;;;;;;20.01;62.45;96108.72;4956778;28;24481;-75
2022/08/24 07:29:41;;;;;;;5.53;3.00;;;;;;;20.00;62.53;96107.06;4956840;28;24430;-74
2022/08/24 07:32:08;;;;;;;4.20;3.10;;;;;;;20.33;62.17;96109.25;4956432;28;25096;-75
2022/08/24 07:34:36;;;;;;;5.90;3.38;;;;;;;20.25;61.79;96107.34;4956511;28;25043;-76
2022/08/24 07:37:02;;;;;;;4.70;3.03;;;;;;;20.23;61.54;96107.50;4956561;28;24422;-75
2022/08/24 07:39:29;;;;;;;6.07;3.08;;;;;;;20.22;60.34;96113.72;4956601;28;24438;-74
2022/08/24 07:41:58;;;;;;;7.20;3.40;;;;;;;20.37;59.95;96115.88;4956624;28;24493;-74
2022/08/24 07:47:46;;;;;;;7.03;3.63;;;;;;;20.68;59.77;96111.09;4965522;28;24528;-72
2022/08/24 07:50:13;;;;;;;5.07;3.17;;;;;;;20.83;58.97;96120.13;4969144;28;25015;-73
2022/08/24 07:52:40;;;;;;;5.80;2.90;;;;;;;20.95;58.40;96118.06;4966189;28;24440;-72
2022/08/24 07:55:07;;;;;;;3.97;2.80;;;;;;;21.11;58.44;96112.94;4973453;28;24496;-73
2022/08/24 07:57:38;;;;;;;3.28;2.75;;;;;;;21.32;58.62;96119.66;4975963;28;24445;-73
2022/08/24 08:00:06;;;;;;;5.88;3.13;;;;;;;21.44;58.51;96113.22;4967604;28;24454;-74
2022/08/24 08:02:33;;;;;;;5.40;2.90;;;;;;;21.46;58.25;96113.88;4980906;28;24476;-74
2022/08/24 08:04:59;;;;;;;4.75;2.90;;;;;;;21.72;58.50;96112.03;4964410;28;24489;-72
2022/08/24 08:07:26;;;;;;;4.10;2.88;;;;;;;21.86;58.85;96121.19;4959476;28;24442;-76
2022/08/24 08:09:53;;;;;;;3.95;2.72;;;;;;;21.91;58.39;96110.16;4972987;28;24496;-76
2022/08/24 08:12:19;;;;;;;4.07;2.90;;;;;;;22.12;57.94;96118.50;4970656;28;24434;-76
2022/08/24 08:14:47;;;;;;;3.97;2.80;;;;;;;22.26;57.73;96121.56;4973281;28;24444;-75
2022/08/24 08:17:15;;;;;;;5.53;2.83;;;;;;;22.36;57.84;96117.78;4968126;28;25073;-75
2022/08/24 08:19:42;;;;;;;5.53;3.00;;;;;;;22.42;57.31;96116.31;4976624;28;24477;-75
2022/08/24 08:24:53;;;;;;;4.47;2.67;;;;;;;22.77;55.61;96120.50;4973595;28;24914;-74
2022/08/24 08:27:20;;;;;;;3.97;2.70;;;;;;;23.26;54.08;96112.63;4972085;28;24437;-75
2022/08/24 08:29:48;;;;;;;5.40;2.47;;;;;;;23.57;53.28;96117.19;4976429;28;24992;-76
2022/08/24 08:32:16;;;;;;;4.05;2.60;;;;;;;23.73;52.90;96114.56;4968213;28;24437;-76
2022/08/24 08:34:42;;;;;;;5.80;2.63;;;;;;;24.18;53.68;96114.88;4971100;28;24459;-75
2022/08/24 08:37:10;;;;;;;4.57;2.47;;;;;;;24.36;51.43;96120.75;4971828;28;24465;-75
2022/08/24 08:39:37;;;;;;;5.55;2.58;;;;;;;24.45;48.39;96111.81;4971148;28;24453;-76
2022/08/24 08:42:30;;;;;;;4.27;2.40;;;;;;;25.09;45.78;96112.34;4969427;28;24461;-76
2022/08/24 08:45:35;;;;;;;2.53;1.40;;;;;;;25.83;40.51;96112.53;4960031;28;24441;-77
2022/08/24 08:48:25;;;;;;;3.20;1.50;;;;;;;26.24;40.07;96113.88;4971656;28;24812;-75
2022/08/24 08:51:49;;;;;;;5.10;1.63;;;;;;;26.67;38.11;96108.69;4966598;28;24856;-76
2022/08/24 08:54:30;;;;;;;5.60;1.85;;;;;;;26.50;37.44;96116.88;4925766;29;24451;-74
2022/08/24 08:57:32;;;;;;;3.93;1.50;;;;;;;26.81;39.21;96120.25;4966938;28;24469;-74
2022/08/24 09:00:23;;;;;;;5.53;1.70;;;;;;;26.76;37.46;96107.53;4970276;28;24442;-74
2022/08/24 09:03:20;;;;;;;5.78;1.90;;;;;;;27.08;36.39;96113.38;4967427;28;24453;-75
2022/08/24 09:06:25;;;;;;;3.35;1.80;;;;;;;26.96;36.86;96116.56;4966973;28;24438;-74
2022/08/24 09:09:07;;;;;;;6.43;1.90;;;;;;;27.24;35.62;96107.81;4968032;28;24437;-75
2022/08/24 09:11:43;;;;;;;3.38;1.70;;;;;;;26.95;34.56;96111.41;4972152;28;24779;-74
2022/08/24 09:14:39;;;;;;;4.22;1.52;;;;;;;27.39;35.42;96110.38;4976805;28;24979;-74
2022/08/24 09:17:25;;;;;;;6.15;1.67;;;;;;;27.24;34.93;96105.16;4975793;28;24449;-74
2022/08/24 09:20:06;;;;;;;3.92;1.88;;;;;;;27.41;35.01;96111.03;4968161;28;24456;-74
2022/08/24 09:22:38;;;;;;;2.27;1.50;;;;;;;27.54;34.47;96107.63;4971209;28;24452;-74
2022/08/24 09:25:22;;;;;;;5.65;1.55;;;;;;;27.50;32.83;96102.69;4971330;28;24448;-74
2022/08/24 09:28:13;;;;;;;2.67;1.38;;;;;;;27.43;33.25;96108.97;4968598;28;25152;-74
2022/08/24 09:31:04;;;;;;;3.30;1.60;;;;;;;27.70;34.20;96105.50;4972747;28;24476;-74
2022/08/24 09:33:41;;;;;;;4.22;1.73;;;;;;;27.84;33.67;96105.59;4979395;28;24442;-75
2022/08/24 09:36:11;;;;;;;3.22;1.50;;;;;;;27.64;33.27;96111.59;4972862;28;24545;-75
2022/08/24 09:38:57;;;;;;;3.97;1.60;;;;;;;27.55;34.86;96103.94;4972420;28;26938;-74
2022/08/24 09:41:52;;;;;;;5.67;1.50;;;;;;;27.93;33.80;96105.25;4972444;28;24434;-74
2022/08/24 09:44:51;;;;;;;2.25;1.20;;;;;;;27.83;31.32;96106.63;4971772;28;24445;-75
2022/08/24 09:48:00;;;;;;;2.08;1.25;;;;;;;27.75;31.24;96107.59;4969546;28;24445;-74
2022/08/24 09:51:03;;;;;;;3.27;1.47;;;;;;;27.74;31.00;96112.13;4971322;28;24468;-74
2022/08/24 09:53:59;;;;;;;2.47;1.38;;;;;;;28.03;32.86;96104.88;4965981;28;24437;-74
2022/08/24 09:56:56;;;;;;;2.97;1.30;;;;;;;28.21;30.95;96094.53;4969805;28;24501;-75
2022/08/24 09:59:46;;;;;;;2.17;1.20;;;;;;;28.55;30.33;96102.66;4965615;28;24840;-75
2022/08/24 10:02:29;;;;;;;2.58;1.60;;;;;;;27.76;30.52;96108.44;4968100;28;24492;-75
2022/08/24 10:05:04;;;;;;;4.15;1.55;;;;;;;27.96;32.46;96101.41;4970834;28;24437;-74
2022/08/24 10:07:41;;;;;;;2.63;1.55;;;;;;;28.25;30.61;96102.13;4970033;28;24497;-75
2022/08/24 10:10:21;;;;;;;3.58;1.40;;;;;;;28.24;30.47;96095.97;4966325;28;24437;-75
2022/08/24 10:12:58;;;;;;;6.10;1.40;;;;;;;28.48;29.92;96101.81;4969066;28;24441;-75
2022/08/24 10:15:28;;;;;;;2.10;1.35;;;;;;;28.60;30.05;96095.72;4970774;28;24441;-75
2022/08/24 10:18:24;;;;;;;3.53;1.50;;;;;;;28.75;31.05;96098.22;4970752;28;24456;-75
2022/08/24 10:21:07;;;;;;;4.68;1.73;;;;;;;28.70;28.36;96101.50;4972857;28;24539;-75
2022/08/24 10:23:50;;;;;;;7.68;1.55;;;;;;;28.51;28.79;96088.91;4971297;28;25000;-75
2022/08/24 10:26:21;;;;;;;3.27;1.50;;;;;;;28.69;30.82;96085.69;4969249;28;24441;-75
2022/08/24 10:29:12;;;;;;;4.22;1.75;;;;;;;28.51;29.40;96085.44;4962274;28;24475;-75
2022/08/24 10:31:49;;;;;;;2.72;1.50;;;;;;;28.46;28.56;96089.53;4964575;28;24520;-75
2022/08/24 10:34:36;;;;;;;4.57;1.20;;;;;;;28.31;28.99;96080.03;4969074;28;21301;-75
2022/08/24 10:37:32;;;;;;;2.53;1.67;;;;;;;28.43;28.26;96079.28;4968841;28;24441;-77
2022/08/24 10:40:20;;;;;;;2.50;1.50;;;;;;;29.13;28.97;96079.81;4962415;28;24540;-76
2022/08/24 10:46:33;;;;;;;2.97;1.40;;;;;;;29.34;28.99;96078.00;4964454;28;24445;-76
2022/08/24 10:49:26;;;;;;;4.18;1.52;;;;;;;29.13;28.90;96082.50;4968257;28;24500;-75
2022/08/24 10:52:13;;;;;;;3.60;1.50;;;;;;;29.15;28.01;96076.97;4969461;28;24989;-75
2022/08/24 10:54:40;;;;;;;4.70;1.55;;;;;;;28.99;28.50;96082.69;4970760;28;24461;-76
2022/08/24 10:57:15;;;;;;;6.68;1.92;;;;;;;28.33;29.02;96076.16;4960461;28;24453;-77
2022/08/24 10:59:50;;;;;;;3.77;1.33;;;;;;;28.29;29.51;96079.41;4971894;28;24452;-77
2022/08/24 11:02:31;;;;;;;3.95;1.35;;;;;;;28.57;29.32;96081.97;4971220;28;24986;-77
2022/08/24 11:04:58;;;;;;;3.47;1.60;;;;;;;28.32;29.55;96071.81;4971116;28;24444;-77
2022/08/24 11:07:25;;;;;;;3.03;1.40;;;;;;;28.34;29.56;96072.47;4962647;28;24445;-77
2022/08/24 11:09:55;;;;;;;5.30;1.50;;;;;;;28.17;27.50;96071.16;4972505;28;24433;-77
2022/08/24 11:12:26;;;;;;;2.97;1.38;;;;;;;28.00;29.61;96076.00;4970589;28;24438;-77
2022/08/24 11:14:54;;;;;;;5.30;1.77;;;;;;;28.36;31.19;96081.06;4971607;28;24444;-78
2022/08/24 11:17:22;;;;;;;3.55;1.85;;;;;;;28.17;30.40;96068.50;4968986;28;24465;-78
2022/08/24 11:19:50;;;;;;;2.85;1.50;;;;;;;28.44;30.36;96072.09;4962336;28;24453;-77
2022/08/24 11:22:39;;;;;;;3.92;1.80;;;;;;;28.40;31.27;96073.53;4970002;28;24496;-77
2022/08/24 11:25:13;;;;;;;4.80;1.97;;;;;;;28.34;31.40;96064.47;4971842;28;24585;-77
2022/08/24 11:27:44;;;;;;;2.95;1.90;;;;;;;28.10;30.88;96062.31;4970095;28;24445;-77
2022/08/24 11:30:21;;;;;;;8.93;1.55;;;;;;;28.15;32.20;96062.56;4970865;28;24489;-76
2022/08/24 11:32:52;;;;;;;3.63;1.67;;;;;;;28.01;31.32;96059.00;4971308;28;24429;-77
2022/08/24 11:35:23;;;;;;;2.20;1.45;;;;;;;28.06;32.62;96055.75;4966949;28;24493;-77
2022/08/24 11:37:51;;;;;;;2.90;1.38;;;;;;;28.01;32.57;96058.19;4975274;28;24477;-77
2022/08/24 11:40:20;;;;;;;2.20;1.50;;;;;;;28.08;33.22;96062.53;4973676;28;24464;-78
2022/08/24 11:43:08;;;;;;;5.18;1.80;;;;;;;28.34;32.13;96053.00;4975732;28;24967;-77
2022/08/24 11:45:40;;;;;;;2.25;1.70;;;;;;;28.45;32.97;96055.94;4968939;28;24827;-79
2022/08/24 11:48:20;;;;;;;4.20;1.80;;;;;;;28.30;32.15;96062.41;4971774;28;24448;-77
2022/08/24 11:50:56;;;;;;;2.22;1.50;;;;;;;28.26;32.66;96058.50;4965679;28;24434;-77
2022/08/24 11:53:32;;;;;;;3.60;1.83;;;;;;;28.31;32.06;96058.72;4972761;28;24985;-77
2022/08/24 11:56:09;;;;;;;5.00;1.40;;;;;;;28.22;32.55;96056.25;4973393;28;24434;-77
2022/08/24 11:58:48;;;;;;;3.55;1.45;;;;;;;28.23;33.24;96059.72;4975727;28;25015;-77
2022/08/24 12:01:22;;;;;;;3.13;1.58;;;;;;;28.33;32.91;96054.84;4972655;28;24449;-79
2022/08/24 12:04:22;;;;;;;2.97;1.70;;;;;;;27.70;32.92;96054.94;4976528;28;24432;-76
2022/08/24 12:06:56;;;;;;;2.50;1.40;;;;;;;27.68;33.93;96050.84;4965530;28;24850;-77
2022/08/24 12:09:32;;;;;;;2.17;1.60;;;;;;;28.00;34.09;96054.72;4981781;28;24973;-77
2022/08/24 12:12:05;;;;;;;5.80;1.70;;;;;;;28.01;32.33;96047.56;4977877;28;24453;-77
2022/08/24 12:14:40;;;;;;;2.25;1.50;;;;;;;28.17;30.77;96053.34;4973923;28;24441;-77
2022/08/24 12:17:16;;;;;;;2.67;1.40;;;;;;;28.37;31.82;96036.63;4972993;28;24528;-79
2022/08/24 12:19:47;;;;;;;4.10;1.42;;;;;;;28.19;31.99;96045.97;4971287;28;24496;-78